Terminal Aerodrome Forecast
Issued by NWS

Home | Current Version | Previous Version | Text Only | Print | Product List | Glossary On
Versions: 1 2 3 4 5 6 7 8 9 10 11 12 13 14 15 16
000
FTUS45 KFGZ 022337
TAFGCN
TAF
KGCN 022337Z 0300/0324 VRB06KT P6SM SCT070 BKN090
      TEMPO 0300/0301 5SM -SHRA BKN060
     FM030200 VRB05KT P6SM SCT100
     FM031600 23012KT P6SM FEW080=

USA.gov is the U.S. government's official web portal to all federal, state and local government web resources and services.